createdAt,value
2022-10-11T00:01:45.326Z,99.90
2022-10-11T00:05:04.762Z,99.90
2022-10-11T00:11:55.681Z,99.90
2022-10-11T00:19:01.760Z,99.90
2022-10-11T00:22:28.999Z,99.90
2022-10-11T00:26:10.599Z,99.90
2022-10-11T00:29:18.225Z,99.90
2022-10-11T00:32:56.338Z,99.90
2022-10-11T00:37:03.028Z,99.90
2022-10-11T00:39:59.463Z,99.90
2022-10-11T00:43:27.042Z,99.90
2022-10-11T00:46:58.491Z,99.90
2022-10-11T00:50:32.379Z,99.90
2022-10-11T00:58:01.859Z,99.90
2022-10-11T01:01:46.737Z,99.90
2022-10-11T01:05:50.886Z,99.90
2022-10-11T01:09:50.205Z,99.90
2022-10-11T01:13:42.509Z,99.90
2022-10-11T01:17:14.135Z,99.90
2022-10-11T01:20:49.618Z,99.90
2022-10-11T01:24:40.364Z,99.90
2022-10-11T01:28:29.203Z,99.90
2022-10-11T01:35:32.422Z,99.90
2022-10-11T01:38:55.154Z,99.90
2022-10-11T01:49:25.216Z,99.90
2022-10-11T01:52:41.227Z,99.90
2022-10-11T01:55:58.049Z,99.90
2022-10-11T02:03:00.237Z,99.90
2022-10-11T02:06:15.139Z,99.90
2022-10-11T02:09:24.796Z,99.90
2022-10-11T02:12:32.233Z,99.90
2022-10-11T02:16:04.107Z,99.90
2022-10-11T02:19:38.441Z,99.90
2022-10-11T02:23:15.805Z,99.90
2022-10-11T02:26:35.877Z,99.90
2022-10-11T02:33:17.553Z,99.90
2022-10-11T02:36:55.378Z,99.90
2022-10-11T02:40:50.556Z,99.90
2022-10-11T02:44:24.308Z,99.90
2022-10-11T02:50:49.052Z,99.90
2022-10-11T02:56:57.903Z,99.90
2022-10-11T03:01:11.848Z,99.90
2022-10-11T03:04:15.087Z,99.90
2022-10-11T03:07:47.546Z,99.90
2022-10-11T03:11:56.173Z,99.90
2022-10-11T03:14:27.381Z,99.90
2022-10-11T03:19:19.158Z,99.90
2022-10-11T03:22:24.078Z,99.90
2022-10-11T03:25:38.164Z,99.90
2022-10-11T03:29:22.211Z,99.90
2022-10-11T03:32:51.921Z,99.90
2022-10-11T03:36:15.316Z,99.90
2022-10-11T03:39:32.972Z,99.90
2022-10-11T03:43:38.678Z,99.90
2022-10-11T03:48:40.029Z,99.90
2022-10-11T03:51:15.767Z,99.90
2022-10-11T03:54:29.183Z,99.90
2022-10-11T03:57:34.921Z,99.90
2022-10-11T04:00:44.644Z,99.90
2022-10-11T04:07:44.713Z,99.90
2022-10-11T04:17:57.864Z,99.90
2022-10-11T04:21:04.695Z,99.90
2022-10-11T04:24:40.351Z,99.90
2022-10-11T04:27:47.510Z,99.90
2022-10-11T04:31:21.635Z,99.90
2022-10-11T04:34:23.616Z,99.90
2022-10-11T04:37:53.720Z,99.90
2022-10-11T04:41:44.620Z,99.90
2022-10-11T04:45:10.425Z,99.90
2022-10-11T04:52:07.809Z,99.90
2022-10-11T04:55:27.714Z,99.90
2022-10-11T04:59:24.147Z,99.90
2022-10-11T05:04:00.903Z,99.90
2022-10-11T05:06:29.648Z,99.90
2022-10-11T05:09:38.404Z,99.90
2022-10-11T05:13:12.533Z,99.90
2022-10-11T05:16:40.685Z,99.90
2022-10-11T05:20:11.337Z,99.90
2022-10-11T05:23:25.081Z,99.90
2022-10-11T05:26:45.925Z,99.90
2022-10-11T05:33:39.559Z,99.90
2022-10-11T05:36:52.491Z,99.90
2022-10-11T05:40:42.604Z,99.90
2022-10-11T05:44:09.600Z,99.90
2022-10-11T05:47:19.881Z,99.90
2022-10-11T05:50:38.681Z,99.90
2022-10-11T05:53:51.734Z,99.90
2022-10-11T05:57:16.944Z,99.90
2022-10-11T06:01:02.731Z,99.90
2022-10-11T06:04:31.970Z,99.90
2022-10-11T06:14:48.931Z,99.90
2022-10-11T06:24:38.535Z,99.90
2022-10-11T06:28:25.189Z,99.90
2022-10-11T06:39:09.857Z,99.90
2022-10-11T06:42:27.620Z,99.90
2022-10-11T06:52:21.180Z,99.90
2022-10-11T06:55:59.800Z,99.90
2022-10-11T07:02:55.004Z,99.90
2022-10-11T07:06:16.943Z,99.90
2022-10-11T07:09:51.030Z,99.90
2022-10-11T07:13:39.682Z,99.90
2022-10-11T07:18:15.611Z,99.90
2022-10-11T07:25:55.392Z,99.90
2022-10-11T07:28:51.373Z,99.90
2022-10-11T07:35:52.644Z,99.90
2022-10-11T07:39:42.467Z,99.90
2022-10-11T07:43:11.672Z,99.90
2022-10-11T07:46:39.308Z,99.90
2022-10-11T07:53:53.036Z,99.90
2022-10-11T08:00:48.973Z,99.90
2022-10-11T08:04:07.798Z,99.90
2022-10-11T08:07:20.031Z,99.90
2022-10-11T08:10:32.349Z,99.90
2022-10-11T08:14:12.489Z,99.90
2022-10-11T08:20:39.249Z,99.90
2022-10-11T08:23:46.102Z,99.90
2022-10-11T08:31:07.512Z,99.90
2022-10-11T08:34:29.165Z,99.90
2022-10-11T08:40:54.477Z,99.90
2022-10-11T08:45:05.319Z,99.90
2022-10-11T08:49:27.258Z,99.90
2022-10-11T08:53:27.355Z,99.90
2022-10-11T09:00:15.040Z,99.90
2022-10-11T09:01:24.885Z,99.90
2022-10-11T09:05:03.358Z,99.90
2022-10-11T09:08:44.266Z,99.90
2022-10-11T09:13:12.415Z,99.90
2022-10-11T09:16:50.123Z,99.90
2022-10-11T09:20:28.851Z,99.90
2022-10-11T09:24:08.927Z,99.90
2022-10-11T09:31:11.217Z,99.90
2022-10-11T09:34:50.315Z,99.90
2022-10-11T09:38:25.938Z,99.90
2022-10-11T09:41:47.650Z,99.90
2022-10-11T09:48:54.256Z,99.90
2022-10-11T09:52:44.878Z,99.90
2022-10-11T09:55:32.854Z,99.90
2022-10-11T10:01:08.523Z,99.90
2022-10-11T10:03:38.937Z,99.90
2022-10-11T10:06:10.368Z,99.90
2022-10-11T10:08:39.974Z,99.90
2022-10-11T10:11:11.811Z,99.90
2022-10-11T10:13:46.210Z,99.90
2022-10-11T10:17:07.396Z,99.90
2022-10-11T10:20:17.974Z,99.90
2022-10-11T10:23:46.500Z,99.90
2022-10-11T10:27:14.655Z,99.90
2022-10-11T10:30:41.385Z,99.90
2022-10-11T10:33:55.047Z,99.90
2022-10-11T10:40:37.245Z,99.90
2022-10-11T10:44:34.577Z,99.90
2022-10-11T10:47:53.186Z,99.90
2022-10-11T10:52:16.409Z,99.90
2022-10-11T10:55:44.606Z,99.90
2022-10-11T10:59:20.390Z,99.90
2022-10-11T11:02:41.061Z,99.90
2022-10-11T11:07:00.059Z,99.90
2022-10-11T11:10:39.647Z,99.90
2022-10-11T11:17:25.683Z,99.90
2022-10-11T11:21:15.605Z,99.10
2022-10-11T11:31:33.551Z,99.10
2022-10-11T11:35:03.511Z,98.30
2022-10-11T11:38:14.809Z,96.80
2022-10-11T11:41:51.413Z,94.90
2022-10-11T11:45:13.524Z,95.80
2022-10-11T11:48:21.206Z,97.00
2022-10-11T11:52:21.401Z,95.30
2022-10-11T12:00:04.308Z,95.90
2022-10-11T12:03:24.421Z,95.80
2022-10-11T12:07:17.997Z,97.90
2022-10-11T12:14:36.193Z,94.80
2022-10-11T12:17:45.438Z,95.00
2022-10-11T12:21:20.779Z,96.30
2022-10-11T12:26:48.574Z,95.70
2022-10-11T12:29:16.002Z,97.90
2022-10-11T12:32:33.846Z,96.40
2022-10-11T12:40:03.752Z,99.90
2022-10-11T12:44:06.175Z,99.90
2022-10-11T12:47:55.775Z,99.90
2022-10-11T12:51:05.611Z,99.90
2022-10-11T12:55:25.038Z,99.90
2022-10-11T12:59:40.040Z,99.90
2022-10-11T13:06:42.901Z,99.90
2022-10-11T13:10:02.465Z,99.90
2022-10-11T13:13:33.649Z,99.90
2022-10-11T13:17:20.449Z,99.90
2022-10-11T13:20:25.997Z,95.90
2022-10-11T13:23:44.120Z,96.00
2022-10-11T13:27:03.345Z,94.80
2022-10-11T13:30:16.233Z,94.50
2022-10-11T13:34:24.749Z,95.80
2022-10-11T13:38:11.569Z,93.70
2022-10-11T13:41:38.985Z,94.60
2022-10-11T13:44:58.961Z,92.90
2022-10-11T13:48:22.698Z,92.50
2022-10-11T13:51:59.499Z,91.80
2022-10-11T13:55:43.441Z,92.80
2022-10-11T14:02:21.840Z,92.40
2022-10-11T14:12:58.779Z,91.90
2022-10-11T14:16:25.858Z,90.40
2022-10-11T14:26:55.496Z,92.40
2022-10-11T14:34:23.130Z,92.90
2022-10-11T14:40:51.011Z,92.20
2022-10-11T14:43:54.269Z,91.30
2022-10-11T14:47:02.949Z,93.30
2022-10-11T14:51:33.154Z,93.40
2022-10-11T14:54:43.927Z,93.90
2022-10-11T14:58:03.835Z,94.70
2022-10-11T15:05:10.346Z,93.30
2022-10-11T15:08:54.772Z,95.00
2022-10-11T15:12:13.936Z,96.90
2022-10-11T15:15:16.161Z,97.30
2022-10-11T15:18:16.580Z,98.30
2022-10-11T15:21:36.547Z,99.40
2022-10-11T15:25:27.399Z,99.90
2022-10-11T15:29:30.662Z,99.60
2022-10-11T15:38:51.152Z,98.50
2022-10-11T15:42:13.902Z,99.00
2022-10-11T15:49:33.152Z,99.80
2022-10-11T15:52:44.561Z,99.90
2022-10-11T15:56:12.374Z,99.90
2022-10-11T16:00:04.703Z,99.90
2022-10-11T16:03:24.224Z,99.90
2022-10-11T16:06:35.980Z,99.90
2022-10-11T16:09:53.233Z,99.90
2022-10-11T16:13:31.366Z,99.90
2022-10-11T16:20:17.323Z,99.90
2022-10-11T16:23:41.001Z,99.90
2022-10-11T16:26:57.259Z,99.90
2022-10-11T16:30:17.424Z,99.90
2022-10-11T16:37:02.041Z,99.90
2022-10-11T16:40:11.071Z,99.90
2022-10-11T16:43:42.278Z,99.90
2022-10-11T16:54:02.878Z,99.90
2022-10-11T17:00:33.014Z,99.90
2022-10-11T17:03:52.673Z,99.90
2022-10-11T17:06:17.801Z,99.90
2022-10-11T17:07:27.073Z,99.90
2022-10-11T17:10:58.844Z,99.90
2022-10-11T17:14:25.877Z,99.90
2022-10-11T17:17:51.358Z,99.90
2022-10-11T17:21:23.589Z,99.90
2022-10-11T17:35:17.882Z,99.90
2022-10-11T17:38:45.457Z,99.90
2022-10-11T17:41:53.636Z,99.90
2022-10-11T17:45:38.943Z,99.90
2022-10-11T17:48:54.469Z,99.90
2022-10-11T17:56:12.053Z,99.90
2022-10-11T17:59:35.431Z,99.90
2022-10-11T18:06:59.212Z,99.90
2022-10-11T18:10:27.848Z,99.90
2022-10-11T18:13:37.550Z,99.90
2022-10-11T18:13:50.779Z,99.90
2022-10-11T18:17:26.609Z,99.90
2022-10-11T18:24:14.312Z,99.90
2022-10-11T18:30:42.358Z,99.90
2022-10-11T18:33:31.802Z,99.90
2022-10-11T18:36:57.854Z,99.90
2022-10-11T18:40:09.461Z,99.90
2022-10-11T18:44:05.881Z,99.90
2022-10-11T18:47:22.430Z,99.90
2022-10-11T18:50:35.883Z,99.90
2022-10-11T18:57:00.186Z,99.90
2022-10-11T19:00:37.711Z,99.90
2022-10-11T19:03:48.307Z,99.90
2022-10-11T19:06:56.179Z,99.90
2022-10-11T19:11:21.876Z,99.90
2022-10-11T19:14:16.789Z,99.90
2022-10-11T19:17:20.771Z,99.90
2022-10-11T19:23:37.558Z,99.90
2022-10-11T19:27:24.013Z,99.90
2022-10-11T19:34:07.478Z,99.90
2022-10-11T19:37:52.798Z,99.90
2022-10-11T19:41:03.803Z,99.90
2022-10-11T19:44:39.686Z,99.90
2022-10-11T19:55:15.169Z,99.90
2022-10-11T19:58:39.272Z,99.90
2022-10-11T20:02:33.697Z,99.90
2022-10-11T20:06:15.348Z,99.90
2022-10-11T20:09:57.052Z,99.90
2022-10-11T20:13:16.732Z,99.90
2022-10-11T20:16:30.434Z,99.90
2022-10-11T20:19:52.598Z,99.90
2022-10-11T20:23:30.167Z,99.90
2022-10-11T20:26:36.514Z,99.90
2022-10-11T20:33:01.364Z,99.90
2022-10-11T20:36:46.880Z,99.90
2022-10-11T20:44:24.465Z,99.90
2022-10-11T20:48:20.573Z,99.90
2022-10-11T20:51:28.478Z,99.90
2022-10-11T20:58:35.837Z,99.90
2022-10-11T21:01:43.201Z,99.90
2022-10-11T21:05:08.593Z,99.90
2022-10-11T21:12:13.085Z,99.90
2022-10-11T21:15:19.085Z,99.90
2022-10-11T21:18:28.857Z,99.90
2022-10-11T21:21:35.980Z,99.90
2022-10-11T21:25:13.425Z,99.90
2022-10-11T21:28:32.023Z,99.90
2022-10-11T21:32:17.628Z,99.90
2022-10-11T21:39:00.388Z,99.90
2022-10-11T21:41:59.847Z,99.90
2022-10-11T21:45:29.556Z,99.90
2022-10-11T21:49:31.423Z,99.90
2022-10-11T21:52:33.889Z,99.90
2022-10-11T21:55:48.592Z,99.90
2022-10-11T21:59:03.597Z,99.90
2022-10-11T22:02:25.004Z,99.90
2022-10-11T22:09:44.483Z,99.90
2022-10-11T22:16:36.928Z,99.90
2022-10-11T22:23:28.747Z,99.90
2022-10-11T22:33:54.880Z,99.90
2022-10-11T22:40:45.389Z,99.90
2022-10-11T22:44:18.769Z,99.90
2022-10-11T22:47:19.906Z,99.90
2022-10-11T22:53:50.888Z,99.90
2022-10-11T22:57:27.296Z,99.90
2022-10-11T23:01:14.772Z,99.90
2022-10-11T23:04:33.722Z,99.90
2022-10-11T23:11:36.282Z,99.90
2022-10-11T23:14:43.787Z,99.90
2022-10-11T23:36:08.904Z,99.90
2022-10-11T23:39:46.737Z,99.90
2022-10-11T23:43:25.138Z,99.90
2022-10-11T23:46:50.417Z,99.90
2022-10-11T23:49:55.428Z,99.90
